logo
Rechercher aéroport 
image banner adimage banner adimage banner ad
image banner ad

SNWC - Aeroporto De Camocim

Situé à Camocim, Brazil

ICAO - SNWC, IATA - CMC

Données fournies par Airmate  

Information générale

Coordonnées: S2°53'45" W40°51'32"
Élévation : 46 feet MSL.
Variation magnétique : -20.7° East
Voir autres Aéroports à Ceará

Données opérationnelles

Special qualification required
Heure actuelle UTC:
Heure actuelle locale:
Météo à : - ( 0 km )
METAR: UUOK 171916Z AUTO 22004MPS 9999 // ///010/// 19/18 Q1009 RMK QFE739/0986
Voir NOTAMs / SUP AIP / TFR affectant cet aéroport [VIEW]
Fréquences de communication: [VIEW]

Pistes:

Identifiant RWYQFULongueur (ft)Largeur (ft)SurfaceLDA (ft)
144134197ASPH
324134197ASPH

Coordonnées de l'aéroport

Adresse: Camocim Brazil

Vue satellite de SNWC